createdAt,value
2022-11-12T00:01:32.014Z,35.50
2022-11-12T00:04:17.899Z,35.47
2022-11-12T00:07:03.480Z,38.67
2022-11-12T00:09:49.196Z,41.97
2022-11-12T00:12:36.442Z,48.15
2022-11-12T00:15:22.164Z,47.25
2022-11-12T00:18:08.107Z,47.83
2022-11-12T00:20:53.846Z,50.83
2022-11-12T00:23:39.307Z,48.25
2022-11-12T00:26:24.886Z,49.30
2022-11-12T00:29:10.501Z,47.55
2022-11-12T00:31:56.338Z,55.65
2022-11-12T00:34:41.988Z,55.60
2022-11-12T00:37:27.447Z,55.78
2022-11-12T00:40:13.229Z,56.40
2022-11-12T00:42:58.922Z,53.50
2022-11-12T00:45:44.484Z,49.53
2022-11-12T00:48:29.882Z,49.58
2022-11-12T00:51:15.446Z,46.58
2022-11-12T00:54:01.550Z,45.33
2022-11-12T00:56:47.749Z,47.55
2022-11-12T00:59:33.619Z,51.15
2022-11-12T01:02:20.590Z,47.05
2022-11-12T01:05:06.549Z,49.80
2022-11-12T01:07:55.942Z,46.78
2022-11-12T01:10:41.965Z,46.95
2022-11-12T01:13:27.594Z,46.80
2022-11-12T01:16:22.478Z,47.75
2022-11-12T01:19:13.524Z,47.58
2022-11-12T01:21:59.396Z,45.92
2022-11-12T01:24:45.055Z,43.80
2022-11-12T01:27:33.315Z,44.97
2022-11-12T01:30:19.031Z,42.70
2022-11-12T01:33:04.839Z,45.38
2022-11-12T01:35:50.259Z,43.30
2022-11-12T01:38:37.537Z,41.65
2022-11-12T01:41:27.008Z,38.60
2022-11-12T01:44:17.547Z,36.25
2022-11-12T01:47:21.633Z,36.45
2022-11-12T01:50:16.139Z,38.40
2022-11-12T01:53:06.364Z,36.35
2022-11-12T01:55:53.088Z,33.35
2022-11-12T01:58:40.302Z,32.35
2022-11-12T02:01:26.460Z,32.95
2022-11-12T02:04:12.466Z,29.98
2022-11-12T02:06:59.630Z,30.63
2022-11-12T02:09:45.149Z,30.63
2022-11-12T02:12:49.352Z,29.65
2022-11-12T02:15:34.908Z,28.55
2022-11-12T02:18:20.242Z,26.80
2022-11-12T02:21:09.158Z,28.67
2022-11-12T02:24:13.230Z,27.30
2022-11-12T02:26:59.530Z,30.23
2022-11-12T02:29:47.722Z,25.85
2022-11-12T02:32:33.218Z,26.40
2022-11-12T02:35:19.101Z,28.55
2022-11-12T02:38:06.146Z,29.60
2022-11-12T02:40:52.316Z,28.95
2022-11-12T02:43:37.903Z,29.92
2022-11-12T02:46:23.328Z,28.42
2022-11-12T02:49:08.934Z,29.10
2022-11-12T02:51:54.454Z,28.42
2022-11-12T02:54:40.129Z,30.60
2022-11-12T02:57:26.162Z,30.15
2022-11-12T03:00:15.761Z,29.98
2022-11-12T03:03:01.871Z,30.80
2022-11-12T03:05:56.975Z,30.73
2022-11-12T03:08:42.748Z,29.90
2022-11-12T03:11:28.400Z,31.70
2022-11-12T03:14:13.598Z,30.95
2022-11-12T03:16:59.211Z,31.77
2022-11-12T03:19:44.722Z,30.50
2022-11-12T03:22:30.415Z,29.40
2022-11-12T03:25:16.032Z,28.55
2022-11-12T03:28:04.958Z,26.17
2022-11-12T03:30:50.257Z,24.08
2022-11-12T03:33:35.912Z,24.50
2022-11-12T03:36:21.271Z,22.13
2022-11-12T03:39:07.109Z,23.88
2022-11-12T03:41:52.834Z,26.33
2022-11-12T03:44:38.381Z,25.00
2022-11-12T03:47:23.959Z,26.20
2022-11-12T03:50:10.430Z,24.50
2022-11-12T03:52:58.298Z,25.70
2022-11-12T03:55:44.050Z,23.88
2022-11-12T03:58:29.596Z,24.25
2022-11-12T04:01:15.609Z,25.95
2022-11-12T04:04:01.075Z,24.40
2022-11-12T04:07:05.132Z,23.42
2022-11-12T04:09:50.973Z,24.13
2022-11-12T04:12:55.128Z,24.90
2022-11-12T04:15:40.505Z,24.15
2022-11-12T04:18:44.195Z,24.65
2022-11-12T04:21:51.123Z,24.02
2022-11-12T04:24:59.834Z,25.30
2022-11-12T04:27:45.144Z,24.73
2022-11-12T04:30:33.491Z,26.52
2022-11-12T04:33:19.031Z,27.05
2022-11-12T04:36:04.813Z,28.35
2022-11-12T04:38:50.538Z,27.70
2022-11-12T04:41:54.593Z,27.67
2022-11-12T04:45:01.485Z,27.70
2022-11-12T04:47:47.116Z,30.50
2022-11-12T04:50:32.884Z,30.65
2022-11-12T04:53:18.631Z,29.55
2022-11-12T04:56:04.219Z,30.27
2022-11-12T04:58:49.974Z,30.48
2022-11-12T05:01:37.316Z,32.08
2022-11-12T05:04:23.142Z,30.25
2022-11-12T05:07:10.486Z,33.35
2022-11-12T05:09:55.969Z,34.65
2022-11-12T05:12:42.754Z,37.60
2022-11-12T05:15:28.441Z,36.25
2022-11-12T05:18:13.780Z,38.67
2022-11-12T05:21:19.365Z,38.08
2022-11-12T05:24:04.859Z,36.45
2022-11-12T05:26:50.886Z,39.83
2022-11-12T05:29:36.688Z,38.08
2022-11-12T05:32:22.079Z,39.22
2022-11-12T05:35:08.051Z,42.85
2022-11-12T05:37:53.767Z,43.65
2022-11-12T05:40:39.160Z,47.55
2022-11-12T05:43:24.792Z,48.78
2022-11-12T05:46:13.132Z,44.25
2022-11-12T05:48:58.398Z,42.28
2022-11-12T05:51:44.734Z,39.88
2022-11-12T05:54:30.442Z,40.33
2022-11-12T05:57:15.611Z,38.65
2022-11-12T06:00:01.165Z,40.30
2022-11-12T06:02:46.727Z,39.35
2022-11-12T06:05:33.628Z,40.90
2022-11-12T06:08:19.446Z,39.20
2022-11-12T06:11:05.405Z,34.67
2022-11-12T06:13:50.729Z,35.30
2022-11-12T06:16:36.251Z,35.75
2022-11-12T06:19:21.621Z,33.42
2022-11-12T06:22:07.307Z,35.45
2022-11-12T06:24:55.799Z,31.92
2022-11-12T06:27:41.870Z,34.08
2022-11-12T06:30:27.565Z,34.95
2022-11-12T06:33:13.050Z,37.83
2022-11-12T06:36:03.873Z,38.50
2022-11-12T06:38:49.621Z,40.33
2022-11-12T06:41:35.544Z,39.58
2022-11-12T06:44:22.322Z,36.60
2022-11-12T06:47:07.898Z,37.65
2022-11-12T06:49:53.580Z,42.53
2022-11-12T06:52:39.103Z,38.22
2022-11-12T06:55:24.613Z,42.92
2022-11-12T06:58:10.190Z,43.20
2022-11-12T07:00:55.745Z,42.83
2022-11-12T07:03:42.295Z,42.65
2022-11-12T07:06:28.392Z,39.80
2022-11-12T07:09:13.961Z,41.65
2022-11-12T07:11:59.449Z,41.22
2022-11-12T07:14:45.063Z,33.45
2022-11-12T07:17:31.091Z,32.55
2022-11-12T07:20:16.640Z,33.13
2022-11-12T07:23:02.612Z,31.05
2022-11-12T07:25:47.938Z,31.38
2022-11-12T07:28:33.909Z,34.28
2022-11-12T07:31:20.567Z,33.03
2022-11-12T07:34:06.455Z,33.78
2022-11-12T07:36:51.970Z,31.10
2022-11-12T07:39:37.166Z,31.58
2022-11-12T07:42:22.941Z,33.95
2022-11-12T07:45:08.893Z,31.55
2022-11-12T07:47:54.739Z,30.33
2022-11-12T07:50:40.490Z,27.45
2022-11-12T07:53:26.122Z,29.83
2022-11-12T07:56:23.913Z,30.08
2022-11-12T07:59:09.742Z,31.90
2022-11-12T08:01:55.422Z,30.55
2022-11-12T08:04:40.888Z,29.90
2022-11-12T08:07:26.659Z,30.58
2022-11-12T08:10:12.300Z,30.52
2022-11-12T08:12:58.195Z,29.52
2022-11-12T08:15:48.017Z,29.73
2022-11-12T08:18:36.645Z,27.20
2022-11-12T08:21:22.357Z,27.27
2022-11-12T08:24:08.086Z,28.75
2022-11-12T08:26:53.660Z,27.55
2022-11-12T08:29:39.205Z,27.42
2022-11-12T08:32:24.829Z,26.88
2022-11-12T08:35:10.613Z,26.23
2022-11-12T08:38:00.762Z,27.42
2022-11-12T08:40:47.487Z,27.75
2022-11-12T08:43:32.876Z,26.30
2022-11-12T08:46:18.644Z,25.27
2022-11-12T08:49:04.493Z,26.10
2022-11-12T08:51:50.097Z,26.40
2022-11-12T08:54:35.736Z,24.83
2022-11-12T08:57:21.723Z,25.02
2022-11-12T09:00:07.985Z,23.10
2022-11-12T09:02:53.744Z,23.55
2022-11-12T09:05:39.342Z,23.15
2022-11-12T09:08:25.972Z,23.67
2022-11-12T09:11:11.748Z,22.42
2022-11-12T09:13:57.418Z,22.77
2022-11-12T09:16:43.456Z,24.20
2022-11-12T09:19:28.820Z,22.13
2022-11-12T09:22:14.310Z,22.75
2022-11-12T09:24:59.890Z,24.30
2022-11-12T09:27:48.454Z,23.92
2022-11-12T09:30:34.601Z,23.08
2022-11-12T09:33:27.123Z,22.90
2022-11-12T09:36:12.912Z,26.23
2022-11-12T09:38:58.639Z,24.98
2022-11-12T09:41:44.311Z,26.00
2022-11-12T09:44:36.531Z,23.20
2022-11-12T09:47:27.543Z,25.50
2022-11-12T09:50:38.312Z,23.45
2022-11-12T09:54:00.942Z,22.65
2022-11-12T09:56:51.604Z,21.83
2022-11-12T09:59:41.079Z,22.08
2022-11-12T10:02:36.472Z,18.92
2022-11-12T10:05:47.937Z,20.27
2022-11-12T10:09:16.424Z,18.90
2022-11-12T10:12:33.599Z,20.80
2022-11-12T10:15:53.075Z,20.92
2022-11-12T10:19:10.709Z,23.50
2022-11-12T10:22:17.739Z,21.58
2022-11-12T10:25:18.000Z,19.05
2022-11-12T10:28:39.312Z,17.52
2022-11-12T10:31:25.168Z,17.48
2022-11-12T10:34:13.724Z,16.23
2022-11-12T10:37:12.885Z,16.95
2022-11-12T10:39:58.476Z,15.00
2022-11-12T10:42:59.205Z,15.32
2022-11-12T10:45:46.614Z,13.90
2022-11-12T10:48:34.483Z,14.05
2022-11-12T10:51:27.157Z,17.67
2022-11-12T10:54:35.568Z,15.85
2022-11-12T10:57:24.600Z,16.25
2022-11-12T11:00:13.342Z,16.02
2022-11-12T11:03:00.622Z,15.60
2022-11-12T11:05:58.271Z,16.13
2022-11-12T11:08:50.231Z,13.70
2022-11-12T11:11:35.743Z,11.82
2022-11-12T11:14:28.575Z,13.30
2022-11-12T11:20:25.516Z,11.98
2022-11-12T11:23:20.928Z,11.15
2022-11-12T11:26:49.374Z,11.25
2022-11-12T11:29:44.256Z,10.75
2022-11-12T11:32:50.307Z,12.10
2022-11-12T11:36:08.482Z,10.98
2022-11-12T11:39:03.061Z,13.43
2022-11-12T11:42:07.524Z,14.88
2022-11-12T11:45:22.007Z,14.95
2022-11-12T11:48:25.933Z,11.75
2022-11-12T11:51:28.178Z,15.00
2022-11-12T11:54:45.664Z,13.35
2022-11-12T11:57:56.651Z,14.32
2022-11-12T12:00:45.488Z,13.48
2022-11-12T12:04:15.373Z,16.00
2022-11-12T12:07:12.498Z,15.70
2022-11-12T12:10:18.189Z,14.63
2022-11-12T12:13:09.542Z,15.57
2022-11-12T12:16:00.857Z,16.50
2022-11-12T12:19:21.886Z,14.85
2022-11-12T12:22:14.648Z,15.05
2022-11-12T12:25:10.886Z,15.82
2022-11-12T12:28:05.221Z,16.13
2022-11-12T12:30:58.185Z,15.43
2022-11-12T12:33:47.346Z,16.88
2022-11-12T12:36:38.295Z,15.32
2022-11-12T12:39:47.845Z,16.52
2022-11-12T12:42:45.249Z,16.70
2022-11-12T12:45:36.127Z,16.88
2022-11-12T12:48:29.317Z,16.73
2022-11-12T12:54:00.860Z,17.17
2022-11-12T12:56:49.067Z,16.05
2022-11-12T12:59:34.977Z,17.05
2022-11-12T13:02:25.536Z,18.13
2022-11-12T13:05:32.973Z,13.90
2022-11-12T13:08:25.783Z,16.52
2022-11-12T13:14:39.653Z,15.65
2022-11-12T13:17:46.921Z,16.73
2022-11-12T13:20:35.577Z,17.20
2022-11-12T13:24:05.901Z,17.15
2022-11-12T13:26:56.002Z,15.93
2022-11-12T13:29:42.841Z,15.48
2022-11-12T13:32:35.903Z,14.75
2022-11-12T13:35:35.064Z,17.23
2022-11-12T13:38:20.776Z,17.08
2022-11-12T13:41:17.572Z,17.38
2022-11-12T13:44:08.083Z,17.20
2022-11-12T13:46:56.032Z,15.63
2022-11-12T13:49:43.917Z,17.58
2022-11-12T13:52:30.131Z,16.73
2022-11-12T13:55:21.798Z,15.95
2022-11-12T13:58:30.608Z,16.75
2022-11-12T14:01:20.996Z,15.73
2022-11-12T14:04:10.908Z,18.80
2022-11-12T14:07:28.174Z,27.38
2022-11-12T14:10:52.239Z,26.23
2022-11-12T14:14:08.638Z,19.58
2022-11-12T14:17:19.530Z,19.80
2022-11-12T14:20:07.842Z,16.15
2022-11-12T14:22:54.522Z,16.73
2022-11-12T14:25:54.245Z,16.77
2022-11-12T14:28:40.242Z,14.60
2022-11-12T14:31:26.401Z,14.63
2022-11-12T14:34:41.469Z,15.52
2022-11-12T14:37:42.908Z,14.02
2022-11-12T14:40:30.965Z,15.60
2022-11-12T14:43:43.020Z,23.38
2022-11-12T14:46:47.615Z,20.25
2022-11-12T14:49:45.360Z,18.88
2022-11-12T14:52:36.347Z,16.60
2022-11-12T14:55:29.110Z,15.52
2022-11-12T14:58:16.721Z,15.45
2022-11-12T15:02:08.829Z,14.82
2022-11-12T15:04:43.501Z,16.48
2022-11-12T15:07:34.694Z,17.73
2022-11-12T15:10:35.606Z,21.77
2022-11-12T15:13:26.896Z,17.38
2022-11-12T15:16:20.033Z,15.82
2022-11-12T15:19:24.000Z,27.25
2022-11-12T15:22:21.286Z,27.73
2022-11-12T15:25:21.113Z,19.23
2022-11-12T15:28:23.985Z,17.23
2022-11-12T15:31:21.715Z,17.05
2022-11-12T15:34:30.681Z,14.50
2022-11-12T15:37:19.545Z,16.58
2022-11-12T15:40:18.881Z,15.10
2022-11-12T15:43:10.864Z,17.00
2022-11-12T15:45:57.110Z,17.33
2022-11-12T15:48:42.852Z,18.75
2022-11-12T15:51:28.528Z,18.65
2022-11-12T15:54:14.073Z,21.80
2022-11-12T15:56:59.834Z,22.73
2022-11-12T15:59:48.177Z,26.08
2022-11-12T16:02:33.970Z,26.65
2022-11-12T16:05:19.617Z,25.02
2022-11-12T16:08:05.418Z,25.80
2022-11-12T16:10:51.203Z,27.92
2022-11-12T16:13:36.734Z,27.42
2022-11-12T16:16:22.722Z,26.42
2022-11-12T16:19:15.113Z,26.38
2022-11-12T16:22:01.480Z,26.70
2022-11-12T16:24:47.325Z,27.65
2022-11-12T16:27:33.087Z,27.52
2022-11-12T16:30:25.655Z,28.60
2022-11-12T16:33:13.131Z,33.00
2022-11-12T16:35:58.549Z,32.55
2022-11-12T16:38:45.944Z,32.25
2022-11-12T16:41:32.111Z,35.25
2022-11-12T16:44:17.915Z,31.33
2022-11-12T16:47:04.746Z,33.17
2022-11-12T16:49:50.554Z,35.28
2022-11-12T16:52:36.269Z,37.17
2022-11-12T16:55:22.234Z,32.78
2022-11-12T16:58:07.844Z,32.97
2022-11-12T17:00:53.847Z,38.00
2022-11-12T17:03:39.380Z,35.92
2022-11-12T17:06:37.100Z,39.00
2022-11-12T17:09:22.752Z,41.75
2022-11-12T17:12:09.309Z,43.22
2022-11-12T17:14:54.472Z,45.30
2022-11-12T17:17:39.934Z,44.85
2022-11-12T17:20:26.151Z,45.83
2022-11-12T17:23:11.534Z,52.30
2022-11-12T17:26:05.645Z,55.50
2022-11-12T17:28:57.551Z,70.85
2022-11-12T17:31:49.790Z,69.97
2022-11-12T17:34:35.346Z,60.10
2022-11-12T17:37:21.274Z,62.65
2022-11-12T17:40:08.036Z,66.97
2022-11-12T17:42:54.153Z,68.65
2022-11-12T17:45:52.167Z,69.95
2022-11-12T17:48:38.675Z,75.53
2022-11-12T17:51:29.855Z,77.13
2022-11-12T17:54:15.488Z,75.88
2022-11-12T17:57:01.526Z,71.47
2022-11-12T17:59:47.434Z,74.57
2022-11-12T18:02:33.308Z,70.40
2022-11-12T18:05:19.024Z,70.43
2022-11-12T18:08:04.971Z,80.95
2022-11-12T18:10:51.817Z,79.82
2022-11-12T18:13:38.420Z,80.60
2022-11-12T18:16:29.084Z,79.22
2022-11-12T18:19:15.881Z,76.45
2022-11-12T18:22:02.681Z,71.85
2022-11-12T18:24:48.830Z,77.80
2022-11-12T18:27:34.771Z,81.25
2022-11-12T18:30:20.496Z,87.53
2022-11-12T18:33:06.907Z,79.95
2022-11-12T18:36:07.703Z,75.85
2022-11-12T18:38:54.932Z,68.38
2022-11-12T18:41:40.874Z,63.80
2022-11-12T18:44:26.694Z,64.22
2022-11-12T18:47:12.426Z,60.90
2022-11-12T18:49:58.015Z,59.42
2022-11-12T18:52:43.611Z,59.28
2022-11-12T18:55:29.007Z,55.00
2022-11-12T18:58:14.579Z,54.97
2022-11-12T19:01:09.329Z,51.28
2022-11-12T19:03:57.085Z,47.63
2022-11-12T19:06:42.783Z,43.92
2022-11-12T19:09:30.979Z,43.17
2022-11-12T19:12:16.811Z,40.78
2022-11-12T19:15:02.947Z,36.60
2022-11-12T19:17:48.300Z,38.50
2022-11-12T19:20:33.965Z,36.85
2022-11-12T19:23:20.245Z,38.60
2022-11-12T19:26:08.489Z,37.17
2022-11-12T19:28:54.882Z,32.95
2022-11-12T19:31:41.371Z,34.22
2022-11-12T19:34:27.209Z,38.92
2022-11-12T19:37:32.297Z,53.97
2022-11-12T19:40:19.190Z,58.53
2022-11-12T19:43:05.013Z,54.63
2022-11-12T19:45:50.441Z,47.67
2022-11-12T19:48:36.451Z,40.67
2022-11-12T19:51:22.401Z,39.55
2022-11-12T19:54:08.591Z,35.40
2022-11-12T19:56:54.172Z,36.85
2022-11-12T19:59:40.352Z,37.38
2022-11-12T20:02:26.587Z,35.90
2022-11-12T20:05:12.376Z,34.50
2022-11-12T20:07:58.236Z,36.03
2022-11-12T20:10:43.986Z,36.50
2022-11-12T20:13:29.832Z,34.17
2022-11-12T20:16:22.260Z,35.33
2022-11-12T20:19:10.948Z,34.97
2022-11-12T20:21:57.193Z,34.45
2022-11-12T20:24:42.702Z,34.75
2022-11-12T20:27:29.033Z,34.58
2022-11-12T20:30:14.785Z,33.92
2022-11-12T20:33:01.217Z,35.45
2022-11-12T20:35:46.662Z,33.45
2022-11-12T20:38:35.591Z,35.67
2022-11-12T20:41:23.642Z,35.03
2022-11-12T20:44:09.305Z,34.80
2022-11-12T20:46:55.107Z,33.25
2022-11-12T20:49:40.521Z,35.05
2022-11-12T20:52:27.158Z,35.17
2022-11-12T20:55:12.871Z,32.63
2022-11-12T20:57:58.826Z,31.38
2022-11-12T21:00:44.500Z,35.47
2022-11-12T21:03:30.786Z,39.22
2022-11-12T21:06:19.533Z,39.50
2022-11-12T21:09:05.216Z,33.20
2022-11-12T21:11:51.981Z,31.83
2022-11-12T21:14:37.984Z,33.60
2022-11-12T21:17:25.179Z,32.80
2022-11-12T21:20:10.820Z,33.25
2022-11-12T21:22:57.767Z,33.95
2022-11-12T21:25:43.415Z,36.03
2022-11-12T21:28:29.534Z,34.00
2022-11-12T21:31:37.220Z,34.95
2022-11-12T21:34:22.955Z,37.80
2022-11-12T21:37:08.320Z,36.08
2022-11-12T21:39:53.741Z,39.28
2022-11-12T21:42:42.883Z,38.88
2022-11-12T21:45:28.285Z,37.22
2022-11-12T21:48:13.894Z,39.15
2022-11-12T21:51:07.738Z,39.35
2022-11-12T21:53:55.234Z,40.25
2022-11-12T21:56:42.354Z,37.55
2022-11-12T21:59:28.056Z,42.28
2022-11-12T22:02:14.287Z,40.92
2022-11-12T22:04:59.836Z,39.92
2022-11-12T22:07:45.217Z,37.75
2022-11-12T22:10:30.904Z,37.28
2022-11-12T22:13:31.774Z,37.83
2022-11-12T22:16:22.816Z,38.95
2022-11-12T22:19:08.660Z,36.67
2022-11-12T22:21:54.302Z,39.50
2022-11-12T22:24:39.875Z,37.75
2022-11-12T22:27:25.826Z,38.72
2022-11-12T22:30:11.578Z,38.83
2022-11-12T22:32:57.174Z,38.50
2022-11-12T22:35:42.610Z,39.28
2022-11-12T22:38:42.390Z,38.55
2022-11-12T22:41:31.811Z,39.00
2022-11-12T22:44:18.782Z,40.10
2022-11-12T22:47:04.406Z,40.80
2022-11-12T22:49:50.117Z,40.45
2022-11-12T22:52:35.603Z,41.65
2022-11-12T22:55:20.965Z,40.38
2022-11-12T22:58:06.548Z,44.05
2022-11-12T23:00:52.266Z,42.88
2022-11-12T23:03:38.051Z,46.15
2022-11-12T23:06:24.357Z,43.85
2022-11-12T23:09:16.197Z,45.95
2022-11-12T23:12:01.880Z,46.03
2022-11-12T23:14:47.372Z,48.88
2022-11-12T23:17:32.858Z,48.50
2022-11-12T23:20:18.670Z,47.53
2022-11-12T23:23:04.202Z,45.80
2022-11-12T23:25:50.060Z,47.55
2022-11-12T23:28:36.304Z,48.88
2022-11-12T23:31:26.724Z,48.53
2022-11-12T23:34:13.021Z,47.42
2022-11-12T23:36:58.367Z,45.20
2022-11-12T23:39:43.794Z,45.88
2022-11-12T23:42:29.691Z,46.10
2022-11-12T23:45:14.989Z,47.17
2022-11-12T23:48:00.547Z,46.40
2022-11-12T23:50:47.641Z,49.05
2022-11-12T23:53:34.743Z,48.75
2022-11-12T23:56:20.382Z,47.97
2022-11-12T23:59:05.765Z,49.88
